createdAt,value
2017-12-27T00:01:52.366Z,29.90
2017-12-27T00:04:25.761Z,29.90
2017-12-27T00:10:06.402Z,29.90
2017-12-27T00:12:39.494Z,30.00
2017-12-27T00:15:13.530Z,30.20
2017-12-27T00:17:46.598Z,30.00
2017-12-27T00:20:19.757Z,30.00
2017-12-27T00:22:53.798Z,29.90
2017-12-27T00:25:26.981Z,30.00
2017-12-27T00:28:00.147Z,30.10
2017-12-27T00:30:34.070Z,30.10
2017-12-27T00:33:02.398Z,29.90
2017-12-27T00:35:30.124Z,30.00
2017-12-27T00:37:57.689Z,29.90
2017-12-27T00:40:25.564Z,30.00
2017-12-27T00:42:53.115Z,30.00
2017-12-27T00:45:20.690Z,29.60
2017-12-27T00:47:48.288Z,29.50
2017-12-27T00:50:16.096Z,29.60
2017-12-27T00:52:43.674Z,29.40
2017-12-27T00:55:11.226Z,29.40
2017-12-27T00:57:38.808Z,29.20
2017-12-27T01:00:06.376Z,29.10
2017-12-27T01:02:33.974Z,29.10
2017-12-27T01:05:02.276Z,28.80
2017-12-27T01:07:29.834Z,28.80
2017-12-27T01:09:57.498Z,28.70
2017-12-27T01:12:25.042Z,28.80
2017-12-27T01:14:52.631Z,28.70
2017-12-27T01:17:20.381Z,28.60
2017-12-27T01:19:47.968Z,28.70
2017-12-27T01:22:15.514Z,28.50
2017-12-27T01:24:43.112Z,28.40
2017-12-27T01:27:10.662Z,28.40
2017-12-27T01:29:38.332Z,28.20
2017-12-27T01:32:07.412Z,28.20
2017-12-27T01:34:34.980Z,28.20
2017-12-27T01:37:02.569Z,28.20
2017-12-27T01:39:30.900Z,28.20
2017-12-27T01:41:58.439Z,28.10
2017-12-27T01:44:26.144Z,28.10
2017-12-27T01:47:01.474Z,28.10
2017-12-27T01:49:29.032Z,28.10
2017-12-27T01:51:56.666Z,28.10
2017-12-27T01:54:24.238Z,28.10
2017-12-27T01:56:51.808Z,28.10
2017-12-27T01:59:19.480Z,28.10
2017-12-27T02:01:47.084Z,28.10
2017-12-27T02:04:14.676Z,28.10
2017-12-27T02:06:42.246Z,28.10
2017-12-27T02:09:09.832Z,28.10
2017-12-27T02:11:37.383Z,28.10
2017-12-27T02:14:04.941Z,28.60
2017-12-27T02:16:32.461Z,28.10
2017-12-27T02:19:00.018Z,28.10
2017-12-27T02:21:27.586Z,28.10
2017-12-27T02:23:55.252Z,28.10
2017-12-27T02:26:22.833Z,28.10
2017-12-27T02:28:50.463Z,28.10
2017-12-27T02:31:18.026Z,28.10
2017-12-27T02:33:46.474Z,28.10
2017-12-27T02:36:14.817Z,28.10
2017-12-27T02:38:54.246Z,28.10
2017-12-27T02:41:21.854Z,28.10
2017-12-27T02:43:50.171Z,28.10
2017-12-27T02:46:17.719Z,28.10
2017-12-27T02:48:45.306Z,28.10
2017-12-27T02:51:12.875Z,28.10
2017-12-27T02:53:40.440Z,28.10
2017-12-27T02:56:08.039Z,28.10
2017-12-27T02:58:35.619Z,28.60
2017-12-27T03:01:03.157Z,28.10
2017-12-27T03:03:30.725Z,28.10
2017-12-27T03:05:58.314Z,28.10
2017-12-27T03:08:25.851Z,28.10
2017-12-27T03:10:53.436Z,28.10
2017-12-27T03:13:21.023Z,28.10
2017-12-27T03:15:48.650Z,28.10
2017-12-27T03:18:16.221Z,28.10
2017-12-27T03:20:43.831Z,28.10
2017-12-27T03:23:11.421Z,28.10
2017-12-27T03:25:39.019Z,28.10
2017-12-27T03:28:06.669Z,28.10
2017-12-27T03:30:34.275Z,28.00
2017-12-27T03:33:01.837Z,28.10
2017-12-27T03:35:29.515Z,28.10
2017-12-27T03:37:57.047Z,28.00
2017-12-27T03:40:25.434Z,28.10
2017-12-27T03:42:53.107Z,28.00
2017-12-27T03:45:20.647Z,28.10
2017-12-27T03:47:48.995Z,28.00
2017-12-27T03:50:16.579Z,28.00
2017-12-27T03:52:44.891Z,28.00
2017-12-27T03:55:12.849Z,28.00
2017-12-27T03:57:40.395Z,28.00
2017-12-27T04:00:08.766Z,28.00
2017-12-27T04:02:37.272Z,28.00
2017-12-27T04:05:04.841Z,28.00
2017-12-27T04:07:32.601Z,28.00
2017-12-27T04:10:00.193Z,28.00
2017-12-27T04:12:27.799Z,28.00
2017-12-27T04:14:56.115Z,28.00
2017-12-27T04:17:23.709Z,28.00
2017-12-27T04:19:51.277Z,28.00
2017-12-27T04:22:19.654Z,28.00
2017-12-27T04:24:48.051Z,28.00
2017-12-27T04:27:16.359Z,28.00
2017-12-27T04:29:43.937Z,28.00
2017-12-27T04:32:11.502Z,28.00
2017-12-27T04:34:39.058Z,28.00
2017-12-27T04:37:06.693Z,28.00
2017-12-27T04:39:34.228Z,28.00
2017-12-27T04:42:01.792Z,28.00
2017-12-27T04:44:29.386Z,28.00
2017-12-27T04:46:56.957Z,28.00
2017-12-27T04:49:24.551Z,28.00
2017-12-27T04:51:52.877Z,28.00
2017-12-27T04:54:20.470Z,28.00
2017-12-27T04:56:48.038Z,28.00
2017-12-27T04:59:15.617Z,28.10
2017-12-27T05:01:43.954Z,28.00
2017-12-27T05:04:11.548Z,28.00
2017-12-27T05:06:39.891Z,28.00
2017-12-27T05:09:07.440Z,28.00
2017-12-27T05:11:35.070Z,28.00
2017-12-27T05:14:02.622Z,28.00
2017-12-27T05:16:30.222Z,28.00
2017-12-27T05:18:57.788Z,28.00
2017-12-27T05:21:25.403Z,28.00
2017-12-27T05:23:53.773Z,28.00
2017-12-27T05:26:22.139Z,28.00
2017-12-27T05:28:49.699Z,28.00
2017-12-27T05:31:18.057Z,28.00
2017-12-27T05:33:45.744Z,28.00
2017-12-27T05:36:14.100Z,28.00
2017-12-27T05:38:41.650Z,28.00
2017-12-27T05:41:09.208Z,28.00
2017-12-27T05:43:36.940Z,28.00
2017-12-27T05:46:04.873Z,28.00
2017-12-27T05:48:33.222Z,28.00
2017-12-27T05:51:00.773Z,28.00
2017-12-27T05:53:28.352Z,28.00
2017-12-27T05:55:55.985Z,28.00
2017-12-27T05:58:23.535Z,28.00
2017-12-27T06:00:51.242Z,28.00
2017-12-27T06:03:19.577Z,28.00
2017-12-27T06:05:47.178Z,28.00
2017-12-27T06:08:14.726Z,28.00
2017-12-27T06:10:42.328Z,28.00
2017-12-27T06:13:09.888Z,28.00
2017-12-27T06:15:37.449Z,28.00
2017-12-27T06:18:05.038Z,28.00
2017-12-27T06:20:32.572Z,28.00
2017-12-27T06:23:00.244Z,28.00
2017-12-27T06:25:27.803Z,28.00
2017-12-27T06:27:55.414Z,28.00
2017-12-27T06:30:23.014Z,28.00
2017-12-27T06:32:50.622Z,28.00
2017-12-27T06:35:18.180Z,28.00
2017-12-27T06:37:45.805Z,28.00
2017-12-27T06:40:13.366Z,28.00
2017-12-27T06:42:40.976Z,28.00
2017-12-27T06:45:09.419Z,28.50
2017-12-27T06:47:36.978Z,28.00
2017-12-27T06:50:04.517Z,28.00
2017-12-27T06:52:32.112Z,28.00
2017-12-27T06:54:59.704Z,28.00
2017-12-27T06:57:27.310Z,28.00
2017-12-27T06:59:54.987Z,28.00
2017-12-27T07:02:22.543Z,28.00
2017-12-27T07:04:50.116Z,28.00
2017-12-27T07:07:18.574Z,28.00
2017-12-27T07:09:46.279Z,28.00
2017-12-27T07:12:13.866Z,28.00
2017-12-27T07:14:42.174Z,28.50
2017-12-27T07:17:09.764Z,28.00
2017-12-27T07:19:41.080Z,28.00
2017-12-27T07:22:08.790Z,28.00
2017-12-27T07:24:36.451Z,28.00
2017-12-27T07:27:04.026Z,28.00
2017-12-27T07:29:32.364Z,28.00
2017-12-27T07:32:00.098Z,28.00
2017-12-27T07:34:27.878Z,28.00
2017-12-27T07:36:55.468Z,28.00
2017-12-27T07:39:23.816Z,28.00
2017-12-27T07:41:51.404Z,28.00
2017-12-27T07:44:19.078Z,28.00
2017-12-27T07:46:46.622Z,28.00
2017-12-27T07:49:14.978Z,28.30
2017-12-27T07:51:42.599Z,28.00
2017-12-27T07:54:10.386Z,29.10
2017-12-27T07:56:37.972Z,28.90
2017-12-27T07:59:05.512Z,28.70
2017-12-27T08:01:33.126Z,28.70
2017-12-27T08:04:00.673Z,28.10
2017-12-27T08:06:28.220Z,28.60
2017-12-27T08:08:55.796Z,28.70
2017-12-27T08:11:24.924Z,28.10
2017-12-27T08:13:52.526Z,28.10
2017-12-27T08:16:20.292Z,28.10
2017-12-27T08:18:47.851Z,29.20
2017-12-27T08:21:15.409Z,29.40
2017-12-27T08:23:43.004Z,29.40
2017-12-27T08:26:10.566Z,29.50
2017-12-27T08:28:39.104Z,29.30
2017-12-27T08:31:06.680Z,29.40
2017-12-27T08:33:34.236Z,29.40
2017-12-27T08:36:01.828Z,29.30
2017-12-27T08:38:30.150Z,29.80
2017-12-27T08:40:57.764Z,29.90
2017-12-27T08:43:25.384Z,29.80
2017-12-27T08:45:53.226Z,29.90
2017-12-27T08:48:20.780Z,29.80
2017-12-27T08:50:48.404Z,29.90
2017-12-27T08:53:16.022Z,30.10
2017-12-27T08:55:43.581Z,30.70
2017-12-27T08:58:11.147Z,30.90
2017-12-27T09:00:38.720Z,31.20
2017-12-27T09:03:06.308Z,31.40
2017-12-27T09:05:33.867Z,31.50
2017-12-27T09:08:01.468Z,31.20
2017-12-27T09:10:29.181Z,31.00
2017-12-27T09:12:56.727Z,31.00
2017-12-27T09:15:24.288Z,30.90
2017-12-27T09:17:51.964Z,31.20
2017-12-27T09:20:19.525Z,31.30
2017-12-27T09:22:47.848Z,31.20
2017-12-27T09:25:15.458Z,31.30
2017-12-27T09:27:43.059Z,31.40
2017-12-27T09:30:11.384Z,32.00
2017-12-27T09:32:38.977Z,31.20
2017-12-27T09:35:07.302Z,30.70
2017-12-27T09:37:34.913Z,30.80
2017-12-27T09:40:03.271Z,30.60
2017-12-27T09:42:31.713Z,30.70
2017-12-27T09:44:59.311Z,30.80
2017-12-27T09:47:26.893Z,30.70
2017-12-27T09:49:55.239Z,30.30
2017-12-27T09:52:22.864Z,30.30
2017-12-27T09:54:50.418Z,30.30
2017-12-27T09:57:17.999Z,30.20
2017-12-27T09:59:45.593Z,30.50
2017-12-27T10:02:13.229Z,30.70
2017-12-27T10:04:40.795Z,30.70
2017-12-27T10:07:08.469Z,30.70
2017-12-27T10:09:36.033Z,30.50
2017-12-27T10:12:03.599Z,30.80
2017-12-27T10:14:31.175Z,30.90
2017-12-27T10:16:59.496Z,31.20
2017-12-27T10:19:27.165Z,31.20
2017-12-27T10:21:54.769Z,30.70
2017-12-27T10:24:23.213Z,30.50
2017-12-27T10:26:50.773Z,30.50
2017-12-27T10:29:18.357Z,30.60
2017-12-27T10:31:46.067Z,30.30
2017-12-27T10:34:13.669Z,30.20
2017-12-27T10:36:41.313Z,30.40
2017-12-27T10:39:08.905Z,30.70
2017-12-27T10:41:37.215Z,31.30
2017-12-27T10:44:04.785Z,30.50
2017-12-27T10:46:32.387Z,30.60
2017-12-27T10:48:59.943Z,30.60
2017-12-27T10:51:27.477Z,30.20
2017-12-27T10:53:55.101Z,30.20
2017-12-27T10:56:23.428Z,29.70
2017-12-27T10:58:51.540Z,29.80
2017-12-27T11:01:19.891Z,30.30
2017-12-27T11:03:47.455Z,30.10
2017-12-27T11:06:15.053Z,29.70
2017-12-27T11:08:43.382Z,37.60
2017-12-27T11:11:10.941Z,37.70
2017-12-27T11:13:38.555Z,35.90
2017-12-27T11:16:06.119Z,34.20
2017-12-27T11:18:33.731Z,34.00
2017-12-27T11:21:01.571Z,34.00
2017-12-27T11:23:29.183Z,34.10
2017-12-27T11:25:57.709Z,34.60
2017-12-27T11:28:25.289Z,34.10
2017-12-27T11:30:52.857Z,34.00
2017-12-27T11:33:20.567Z,33.90
2017-12-27T11:35:48.133Z,33.70
2017-12-27T11:38:15.702Z,34.20
2017-12-27T11:40:43.297Z,33.50
2017-12-27T11:43:10.861Z,32.10
2017-12-27T11:45:38.475Z,30.90
2017-12-27T11:48:06.067Z,30.30
2017-12-27T11:50:33.633Z,30.00
2017-12-27T11:53:01.205Z,29.90
2017-12-27T11:55:30.309Z,29.50
2017-12-27T11:57:58.631Z,29.40
2017-12-27T12:00:26.241Z,29.50
2017-12-27T12:02:53.824Z,29.90
2017-12-27T12:05:22.231Z,32.70
2017-12-27T12:07:49.779Z,32.10
2017-12-27T12:10:17.353Z,32.00
2017-12-27T12:12:44.904Z,32.20
2017-12-27T12:15:12.519Z,32.50
2017-12-27T12:17:40.922Z,32.90
2017-12-27T12:20:09.375Z,32.50
2017-12-27T12:22:37.780Z,32.90
2017-12-27T12:25:05.371Z,33.00
2017-12-27T12:27:33.279Z,33.00
2017-12-27T12:30:02.382Z,33.30
2017-12-27T12:32:29.935Z,33.40
2017-12-27T12:34:57.561Z,33.50
2017-12-27T12:37:25.107Z,34.00
2017-12-27T12:39:52.703Z,33.90
2017-12-27T12:42:20.257Z,33.00
2017-12-27T12:44:47.939Z,33.40
2017-12-27T12:47:15.510Z,33.20
2017-12-27T12:49:43.117Z,33.40
2017-12-27T12:52:10.697Z,33.00
2017-12-27T12:54:38.225Z,32.40
2017-12-27T12:57:05.809Z,32.40
2017-12-27T12:59:33.345Z,31.90
2017-12-27T13:02:00.953Z,32.10
2017-12-27T13:04:28.535Z,31.80
2017-12-27T13:06:56.121Z,31.80
2017-12-27T13:09:24.467Z,32.10
2017-12-27T13:11:52.037Z,32.00
2017-12-27T13:14:20.350Z,32.00
2017-12-27T13:16:48.013Z,32.00
2017-12-27T13:19:15.594Z,31.50
2017-12-27T13:21:43.194Z,32.10
2017-12-27T13:24:10.796Z,31.40
2017-12-27T13:26:38.337Z,31.80
2017-12-27T13:29:05.923Z,31.20
2017-12-27T13:31:33.500Z,31.00
2017-12-27T13:34:01.143Z,30.60
2017-12-27T13:36:28.733Z,30.70
2017-12-27T13:38:56.304Z,31.10
2017-12-27T13:41:23.895Z,31.30
2017-12-27T13:43:52.215Z,32.10
2017-12-27T13:46:19.838Z,32.10
2017-12-27T13:48:47.662Z,32.00
2017-12-27T13:51:15.221Z,32.40
2017-12-27T13:53:42.780Z,32.60
2017-12-27T13:56:10.389Z,32.50
2017-12-27T13:58:38.059Z,32.20
2017-12-27T14:01:05.674Z,31.80
2017-12-27T14:03:33.282Z,31.90
2017-12-27T14:06:00.863Z,31.50
2017-12-27T14:08:28.442Z,31.60
2017-12-27T14:10:55.997Z,31.40
2017-12-27T14:13:23.565Z,31.20
2017-12-27T14:15:51.175Z,31.10
2017-12-27T14:18:18.765Z,31.00
2017-12-27T14:20:46.319Z,30.90
2017-12-27T14:23:13.878Z,31.00
2017-12-27T14:25:41.633Z,30.70
2017-12-27T14:28:09.215Z,30.60
2017-12-27T14:30:36.786Z,30.40
2017-12-27T14:33:04.438Z,30.40
2017-12-27T14:35:31.989Z,30.40
2017-12-27T14:37:59.534Z,30.10
2017-12-27T14:40:27.082Z,30.00
2017-12-27T14:42:54.690Z,30.00
2017-12-27T14:45:22.250Z,30.00
2017-12-27T14:47:51.326Z,29.90
2017-12-27T14:50:19.004Z,29.90
2017-12-27T14:52:46.583Z,29.90
2017-12-27T14:55:14.942Z,29.80
2017-12-27T14:57:42.488Z,29.80
2017-12-27T15:00:10.826Z,29.80
2017-12-27T15:02:38.416Z,29.80
2017-12-27T15:05:06.037Z,29.70
2017-12-27T15:07:33.596Z,29.70
2017-12-27T15:10:02.026Z,28.40
2017-12-27T15:12:29.638Z,28.60
2017-12-27T15:14:57.278Z,28.30
2017-12-27T15:17:25.662Z,28.50
2017-12-27T15:19:54.106Z,28.30
2017-12-27T15:22:21.674Z,28.30
2017-12-27T15:24:50.771Z,28.30
2017-12-27T15:27:18.540Z,28.30
2017-12-27T15:29:46.136Z,28.30
2017-12-27T15:32:13.823Z,28.30
2017-12-27T15:34:41.353Z,28.30
2017-12-27T15:37:09.741Z,28.30
2017-12-27T15:39:37.310Z,28.30
2017-12-27T15:42:05.185Z,28.30
2017-12-27T15:44:32.758Z,28.40
2017-12-27T15:47:00.406Z,29.10
2017-12-27T15:49:27.984Z,29.60
2017-12-27T15:51:55.572Z,30.00
2017-12-27T15:54:23.150Z,30.90
2017-12-27T15:56:51.472Z,32.00
2017-12-27T15:59:19.292Z,32.00
2017-12-27T16:01:47.630Z,31.20
2017-12-27T16:04:15.288Z,31.20
2017-12-27T16:06:43.015Z,31.70
2017-12-27T16:09:10.619Z,31.60
2017-12-27T16:11:38.186Z,31.60
2017-12-27T16:14:05.773Z,31.40
2017-12-27T16:16:34.101Z,30.70
2017-12-27T16:19:01.747Z,30.80
2017-12-27T16:21:29.348Z,30.60
2017-12-27T16:23:57.073Z,30.40
2017-12-27T16:26:24.689Z,30.30
2017-12-27T16:28:52.359Z,30.20
2017-12-27T16:31:20.689Z,30.00
2017-12-27T16:33:48.293Z,30.00
2017-12-27T16:36:15.857Z,30.00
2017-12-27T16:38:44.279Z,29.80
2017-12-27T16:41:11.885Z,29.70
2017-12-27T16:43:39.595Z,30.00
2017-12-27T16:46:07.221Z,29.30
2017-12-27T16:48:35.644Z,28.70
2017-12-27T16:51:03.243Z,28.90
2017-12-27T16:53:30.859Z,28.60
2017-12-27T16:55:58.407Z,28.40
2017-12-27T16:58:25.995Z,28.40
2017-12-27T17:00:53.637Z,28.40
2017-12-27T17:03:21.225Z,28.40
2017-12-27T17:05:48.815Z,28.40
2017-12-27T17:08:16.466Z,28.40
2017-12-27T17:10:44.083Z,28.40
2017-12-27T17:13:11.683Z,28.90
2017-12-27T17:15:39.267Z,28.80
2017-12-27T17:18:07.758Z,28.90
2017-12-27T17:20:36.140Z,28.90
2017-12-27T17:23:03.738Z,29.00
2017-12-27T17:25:31.341Z,29.00
2017-12-27T17:27:58.893Z,29.20
2017-12-27T17:30:26.539Z,29.30
2017-12-27T17:32:54.164Z,29.20
2017-12-27T17:35:21.707Z,29.30
2017-12-27T17:37:49.271Z,29.20
2017-12-27T17:40:18.083Z,29.00
2017-12-27T17:42:45.943Z,28.90
2017-12-27T17:45:13.511Z,29.00
2017-12-27T17:47:41.125Z,28.80
2017-12-27T17:50:09.495Z,28.90
2017-12-27T17:52:37.063Z,28.90
2017-12-27T17:55:05.483Z,29.40
2017-12-27T17:57:33.067Z,29.40
2017-12-27T18:00:00.627Z,29.60
2017-12-27T18:02:28.259Z,29.40
2017-12-27T18:04:55.929Z,29.70
2017-12-27T18:07:23.705Z,29.70
2017-12-27T18:09:51.253Z,29.80
2017-12-27T18:12:18.833Z,29.70
2017-12-27T18:14:46.397Z,29.60
2017-12-27T18:17:13.983Z,29.60
2017-12-27T18:19:42.323Z,30.10
2017-12-27T18:22:09.943Z,29.70
2017-12-27T18:24:38.323Z,29.60
2017-12-27T18:27:05.877Z,29.60
2017-12-27T18:29:33.495Z,29.60
2017-12-27T18:32:01.222Z,29.50
2017-12-27T18:34:28.785Z,29.70
2017-12-27T18:36:56.370Z,30.00
2017-12-27T18:39:24.001Z,29.70
2017-12-27T18:41:51.567Z,29.70
2017-12-27T18:44:19.145Z,29.60
2017-12-27T18:46:46.817Z,29.50
2017-12-27T18:49:14.366Z,29.30
2017-12-27T18:51:42.123Z,29.40
2017-12-27T18:54:09.717Z,29.30
2017-12-27T18:56:37.281Z,29.40
2017-12-27T18:59:04.837Z,29.40
2017-12-27T19:01:32.597Z,29.40
2017-12-27T19:04:00.165Z,29.40
2017-12-27T19:06:27.761Z,29.50
2017-12-27T19:08:55.311Z,29.60
2017-12-27T19:11:22.991Z,29.60
2017-12-27T19:13:50.565Z,29.60
2017-12-27T19:16:18.140Z,29.60
2017-12-27T19:18:45.727Z,29.70
2017-12-27T19:21:13.331Z,29.60
2017-12-27T19:23:40.901Z,29.70
2017-12-27T19:26:08.503Z,29.80
2017-12-27T19:28:36.146Z,30.00
2017-12-27T19:31:03.721Z,30.00
2017-12-27T19:33:31.377Z,29.90
2017-12-27T19:35:58.889Z,30.00
2017-12-27T19:38:26.486Z,30.00
2017-12-27T19:40:54.042Z,30.00
2017-12-27T19:43:21.669Z,30.00
2017-12-27T19:45:49.264Z,30.00
2017-12-27T19:48:17.057Z,30.10
2017-12-27T19:50:44.667Z,30.00
2017-12-27T19:53:12.255Z,30.00
2017-12-27T19:55:39.859Z,30.00
2017-12-27T19:58:08.246Z,30.00
2017-12-27T20:00:35.808Z,30.10
2017-12-27T20:03:03.408Z,30.00
2017-12-27T20:05:30.990Z,30.00
2017-12-27T20:07:58.584Z,30.00
2017-12-27T20:10:26.159Z,30.00
2017-12-27T20:12:53.878Z,30.00
2017-12-27T20:15:22.270Z,30.10
2017-12-27T20:17:50.679Z,30.00
2017-12-27T20:20:18.255Z,30.00
2017-12-27T20:22:45.833Z,30.00
2017-12-27T20:25:14.122Z,30.00
2017-12-27T20:27:41.723Z,30.00
2017-12-27T20:30:10.086Z,30.00
2017-12-27T20:32:38.572Z,30.00
2017-12-27T20:35:06.952Z,30.00
2017-12-27T20:37:35.305Z,30.00
2017-12-27T20:40:02.962Z,30.10
2017-12-27T20:42:30.743Z,30.10
2017-12-27T20:44:59.316Z,30.00
2017-12-27T20:47:26.882Z,30.00
2017-12-27T20:49:55.283Z,30.50
2017-12-27T20:52:23.081Z,30.10
2017-12-27T20:54:50.728Z,30.10
2017-12-27T20:57:18.513Z,30.10
2017-12-27T20:59:46.124Z,30.40
2017-12-27T21:02:14.453Z,30.30
2017-12-27T21:04:42.188Z,30.30
2017-12-27T21:07:09.766Z,30.50
2017-12-27T21:09:37.350Z,30.60
2017-12-27T21:12:04.950Z,30.40
2017-12-27T21:14:33.485Z,30.90
2017-12-27T21:17:01.118Z,30.90
2017-12-27T21:19:28.682Z,30.60
2017-12-27T21:21:56.241Z,30.60
2017-12-27T21:24:23.810Z,30.60
2017-12-27T21:26:51.370Z,30.70
2017-12-27T21:29:18.974Z,30.70
2017-12-27T21:31:46.580Z,30.70
2017-12-27T21:34:14.296Z,30.70
2017-12-27T21:36:41.846Z,30.70
2017-12-27T21:39:09.391Z,30.70
2017-12-27T21:41:37.111Z,30.70
2017-12-27T21:44:04.690Z,30.60
2017-12-27T21:46:32.309Z,30.80
2017-12-27T21:49:05.640Z,31.60
2017-12-27T21:51:33.330Z,30.70
2017-12-27T21:54:00.904Z,30.40
2017-12-27T21:56:28.596Z,30.50
2017-12-27T21:59:17.730Z,30.40
2017-12-27T22:01:45.300Z,30.40
2017-12-27T22:04:12.862Z,30.30
2017-12-27T22:06:41.240Z,30.40
2017-12-27T22:09:08.864Z,30.40
2017-12-27T22:11:36.496Z,30.30
2017-12-27T22:14:04.046Z,30.30
2017-12-27T22:16:31.619Z,30.30
2017-12-27T22:18:59.349Z,30.30
2017-12-27T22:21:26.934Z,30.30
2017-12-27T22:23:54.606Z,30.40
2017-12-27T22:26:22.195Z,30.30
2017-12-27T22:28:49.757Z,30.30
2017-12-27T22:31:17.326Z,30.20
2017-12-27T22:33:44.934Z,30.20
2017-12-27T22:36:12.502Z,30.30
2017-12-27T22:38:40.184Z,30.20
2017-12-27T22:41:08.563Z,30.20
2017-12-27T22:43:36.215Z,30.20
2017-12-27T22:46:03.778Z,30.30
2017-12-27T22:48:31.482Z,30.30
2017-12-27T22:50:59.062Z,30.30
2017-12-27T22:53:27.406Z,30.50
2017-12-27T22:55:55.045Z,30.50
2017-12-27T22:58:22.616Z,30.50
2017-12-27T23:00:50.214Z,30.60
2017-12-27T23:03:17.848Z,30.50
2017-12-27T23:05:45.453Z,30.00
2017-12-27T23:08:13.796Z,30.20
2017-12-27T23:10:41.366Z,30.30
2017-12-27T23:13:08.967Z,30.20
2017-12-27T23:15:36.535Z,30.10
2017-12-27T23:18:04.110Z,30.10
2017-12-27T23:20:31.726Z,30.10
2017-12-27T23:23:00.068Z,30.10
2017-12-27T23:25:27.675Z,30.10
2017-12-27T23:27:56.039Z,30.20
2017-12-27T23:30:24.545Z,30.20
2017-12-27T23:32:52.134Z,30.20
2017-12-27T23:35:19.694Z,30.20
2017-12-27T23:37:47.610Z,30.30
2017-12-27T23:40:15.938Z,30.20
2017-12-27T23:42:43.482Z,30.30
2017-12-27T23:45:11.914Z,30.40
2017-12-27T23:47:39.566Z,30.30
2017-12-27T23:50:07.988Z,30.40
2017-12-27T23:52:35.584Z,30.30
2017-12-27T23:55:03.248Z,30.30
2017-12-27T23:57:30.814Z,30.40
2017-12-27T23:59:58.380Z,30.30
